sensor_id;sensor_type;location;lat;lon;timestamp;P1;durP1;ratioP1;P2;durP2;ratioP2
49464;SDS011;35358;49.342;8.802;2023-02-28T00:00:38;2.08;;;1.33;;
49464;SDS011;35358;49.342;8.802;2023-02-28T00:03:06;2.88;;;1.70;;
49464;SDS011;35358;49.342;8.802;2023-02-28T00:05:33;2.92;;;1.73;;
49464;SDS011;35358;49.342;8.802;2023-02-28T00:08:03;2.47;;;1.55;;
49464;SDS011;35358;49.342;8.802;2023-02-28T00:10:29;3.03;;;1.55;;
49464;SDS011;35358;49.342;8.802;2023-02-28T00:12:58;3.83;;;1.85;;
49464;SDS011;35358;49.342;8.802;2023-02-28T00:15:25;3.55;;;1.65;;
49464;SDS011;35358;49.342;8.802;2023-02-28T00:17:51;2.75;;;1.60;;
49464;SDS011;35358;49.342;8.802;2023-02-28T00:20:18;3.35;;;1.70;;
49464;SDS011;35358;49.342;8.802;2023-02-28T00:22:45;2.25;;;1.42;;
49464;SDS011;35358;49.342;8.802;2023-02-28T00:25:13;3.88;;;1.90;;
49464;SDS011;35358;49.342;8.802;2023-02-28T00:27:43;1.77;;;1.60;;
49464;SDS011;35358;49.342;8.802;2023-02-28T00:30:11;2.03;;;1.58;;
49464;SDS011;35358;49.342;8.802;2023-02-28T00:32:38;2.10;;;1.43;;
49464;SDS011;35358;49.342;8.802;2023-02-28T00:35:05;2.58;;;1.67;;
49464;SDS011;35358;49.342;8.802;2023-02-28T00:37:31;4.50;;;1.90;;
49464;SDS011;35358;49.342;8.802;2023-02-28T00:39:57;2.03;;;1.42;;
49464;SDS011;35358;49.342;8.802;2023-02-28T00:42:23;2.83;;;2.03;;
49464;SDS011;35358;49.342;8.802;2023-02-28T00:44:49;2.83;;;1.50;;
49464;SDS011;35358;49.342;8.802;2023-02-28T00:47:17;3.92;;;1.90;;
49464;SDS011;35358;49.342;8.802;2023-02-28T00:49:47;4.25;;;1.98;;
49464;SDS011;35358;49.342;8.802;2023-02-28T00:52:15;2.97;;;1.90;;
49464;SDS011;35358;49.342;8.802;2023-02-28T00:54:41;3.33;;;2.20;;
49464;SDS011;35358;49.342;8.802;2023-02-28T00:57:06;2.10;;;1.70;;
49464;SDS011;35358;49.342;8.802;2023-02-28T00:59:32;2.58;;;1.80;;
49464;SDS011;35358;49.342;8.802;2023-02-28T01:01:57;4.97;;;1.80;;
49464;SDS011;35358;49.342;8.802;2023-02-28T01:04:23;3.70;;;1.80;;
49464;SDS011;35358;49.342;8.802;2023-02-28T01:06:51;2.67;;;1.80;;
49464;SDS011;35358;49.342;8.802;2023-02-28T01:09:16;2.72;;;1.73;;
49464;SDS011;35358;49.342;8.802;2023-02-28T01:11:42;3.95;;;2.08;;
49464;SDS011;35358;49.342;8.802;2023-02-28T01:14:12;2.65;;;1.80;;
49464;SDS011;35358;49.342;8.802;2023-02-28T01:16:41;3.47;;;1.30;;
49464;SDS011;35358;49.342;8.802;2023-02-28T01:19:07;4.05;;;1.70;;
49464;SDS011;35358;49.342;8.802;2023-02-28T01:21:35;4.05;;;1.92;;
49464;SDS011;35358;49.342;8.802;2023-02-28T01:24:04;5.15;;;2.17;;
49464;SDS011;35358;49.342;8.802;2023-02-28T01:26:32;2.50;;;1.92;;
49464;SDS011;35358;49.342;8.802;2023-02-28T01:28:58;2.58;;;1.48;;
49464;SDS011;35358;49.342;8.802;2023-02-28T01:31:26;3.38;;;2.10;;
49464;SDS011;35358;49.342;8.802;2023-02-28T01:33:55;2.95;;;1.80;;
49464;SDS011;35358;49.342;8.802;2023-02-28T01:36:23;2.33;;;1.80;;
49464;SDS011;35358;49.342;8.802;2023-02-28T01:38:49;3.58;;;2.10;;
49464;SDS011;35358;49.342;8.802;2023-02-28T01:41:28;5.53;;;1.90;;
49464;SDS011;35358;49.342;8.802;2023-02-28T01:44:03;2.83;;;1.73;;
49464;SDS011;35358;49.342;8.802;2023-02-28T01:46:52;4.95;;;2.05;;
49464;SDS011;35358;49.342;8.802;2023-02-28T01:49:18;3.28;;;2.28;;
49464;SDS011;35358;49.342;8.802;2023-02-28T01:51:51;3.33;;;2.22;;
49464;SDS011;35358;49.342;8.802;2023-02-28T01:54:27;3.35;;;2.28;;
49464;SDS011;35358;49.342;8.802;2023-02-28T01:56:57;5.32;;;2.30;;
49464;SDS011;35358;49.342;8.802;2023-02-28T01:59:26;4.03;;;2.13;;
49464;SDS011;35358;49.342;8.802;2023-02-28T02:01:57;3.63;;;2.40;;
49464;SDS011;35358;49.342;8.802;2023-02-28T02:04:26;4.72;;;2.28;;
49464;SDS011;35358;49.342;8.802;2023-02-28T02:06:57;3.05;;;2.40;;
49464;SDS011;35358;49.342;8.802;2023-02-28T02:09:24;5.03;;;3.00;;
49464;SDS011;35358;49.342;8.802;2023-02-28T02:11:52;2.42;;;2.00;;
49464;SDS011;35358;49.342;8.802;2023-02-28T02:36:48;7.10;;;3.15;;
49464;SDS011;35358;49.342;8.802;2023-02-28T02:41:51;4.32;;;2.47;;
49464;SDS011;35358;49.342;8.802;2023-02-28T02:44:40;4.88;;;2.58;;
49464;SDS011;35358;49.342;8.802;2023-02-28T02:47:20;4.18;;;2.95;;
49464;SDS011;35358;49.342;8.802;2023-02-28T02:49:50;3.53;;;1.98;;
49464;SDS011;35358;49.342;8.802;2023-02-28T02:52:20;4.55;;;2.75;;
49464;SDS011;35358;49.342;8.802;2023-02-28T02:54:52;3.17;;;2.28;;
49464;SDS011;35358;49.342;8.802;2023-02-28T02:57:25;4.50;;;2.67;;
49464;SDS011;35358;49.342;8.802;2023-02-28T03:00:02;5.20;;;2.90;;
49464;SDS011;35358;49.342;8.802;2023-02-28T03:02:36;4.32;;;2.35;;
49464;SDS011;35358;49.342;8.802;2023-02-28T03:05:08;5.43;;;2.45;;
49464;SDS011;35358;49.342;8.802;2023-02-28T03:07:43;3.90;;;2.45;;
49464;SDS011;35358;49.342;8.802;2023-02-28T03:10:28;4.63;;;2.63;;
49464;SDS011;35358;49.342;8.802;2023-02-28T03:13:02;4.30;;;2.42;;
49464;SDS011;35358;49.342;8.802;2023-02-28T03:16:17;5.13;;;2.90;;
49464;SDS011;35358;49.342;8.802;2023-02-28T03:18:54;3.97;;;2.70;;
49464;SDS011;35358;49.342;8.802;2023-02-28T03:27:21;6.20;;;3.10;;
49464;SDS011;35358;49.342;8.802;2023-02-28T03:29:58;4.28;;;2.78;;
49464;SDS011;35358;49.342;8.802;2023-02-28T03:32:26;3.75;;;2.78;;
49464;SDS011;35358;49.342;8.802;2023-02-28T03:35:05;4.68;;;2.90;;
49464;SDS011;35358;49.342;8.802;2023-02-28T03:37:39;5.13;;;3.28;;
49464;SDS011;35358;49.342;8.802;2023-02-28T03:40:15;5.30;;;3.13;;
49464;SDS011;35358;49.342;8.802;2023-02-28T03:42:51;5.20;;;3.15;;
49464;SDS011;35358;49.342;8.802;2023-02-28T03:45:28;3.80;;;2.75;;
49464;SDS011;35358;49.342;8.802;2023-02-28T03:48:02;4.82;;;3.35;;
49464;SDS011;35358;49.342;8.802;2023-02-28T03:50:38;5.28;;;3.13;;
49464;SDS011;35358;49.342;8.802;2023-02-28T03:55:37;4.53;;;3.45;;
49464;SDS011;35358;49.342;8.802;2023-02-28T03:58:27;5.13;;;3.15;;
49464;SDS011;35358;49.342;8.802;2023-02-28T04:01:09;4.93;;;3.28;;
49464;SDS011;35358;49.342;8.802;2023-02-28T04:03:48;4.50;;;3.35;;
49464;SDS011;35358;49.342;8.802;2023-02-28T04:06:21;5.15;;;3.00;;
49464;SDS011;35358;49.342;8.802;2023-02-28T04:08:50;5.93;;;3.88;;
49464;SDS011;35358;49.342;8.802;2023-02-28T04:11:18;5.88;;;3.63;;
49464;SDS011;35358;49.342;8.802;2023-02-28T04:13:47;6.20;;;3.88;;
49464;SDS011;35358;49.342;8.802;2023-02-28T04:16:17;5.38;;;3.30;;
49464;SDS011;35358;49.342;8.802;2023-02-28T04:18:45;5.57;;;3.75;;
49464;SDS011;35358;49.342;8.802;2023-02-28T04:21:11;6.68;;;3.38;;
49464;SDS011;35358;49.342;8.802;2023-02-28T04:23:36;5.05;;;3.08;;
49464;SDS011;35358;49.342;8.802;2023-02-28T04:26:04;6.82;;;3.97;;
49464;SDS011;35358;49.342;8.802;2023-02-28T04:28:31;7.10;;;3.28;;
49464;SDS011;35358;49.342;8.802;2023-02-28T04:31:01;5.40;;;3.63;;
49464;SDS011;35358;49.342;8.802;2023-02-28T04:33:29;6.05;;;3.53;;
49464;SDS011;35358;49.342;8.802;2023-02-28T04:36:01;5.57;;;3.70;;
49464;SDS011;35358;49.342;8.802;2023-02-28T04:38:29;6.15;;;3.45;;
49464;SDS011;35358;49.342;8.802;2023-02-28T04:40:58;6.53;;;3.50;;
49464;SDS011;35358;49.342;8.802;2023-02-28T04:43:26;4.53;;;3.40;;
49464;SDS011;35358;49.342;8.802;2023-02-28T04:45:53;5.68;;;3.80;;
49464;SDS011;35358;49.342;8.802;2023-02-28T04:48:21;4.40;;;3.30;;
49464;SDS011;35358;49.342;8.802;2023-02-28T04:50:51;5.65;;;3.50;;
49464;SDS011;35358;49.342;8.802;2023-02-28T04:53:17;6.03;;;3.63;;
49464;SDS011;35358;49.342;8.802;2023-02-28T04:55:43;4.80;;;3.72;;
49464;SDS011;35358;49.342;8.802;2023-02-28T04:58:09;5.13;;;3.25;;
49464;SDS011;35358;49.342;8.802;2023-02-28T05:00:37;4.75;;;2.92;;
49464;SDS011;35358;49.342;8.802;2023-02-28T05:03:02;5.45;;;2.88;;
49464;SDS011;35358;49.342;8.802;2023-02-28T05:05:28;6.30;;;3.60;;
49464;SDS011;35358;49.342;8.802;2023-02-28T05:07:56;6.72;;;3.88;;
49464;SDS011;35358;49.342;8.802;2023-02-28T05:10:22;5.95;;;3.88;;
49464;SDS011;35358;49.342;8.802;2023-02-28T05:12:48;5.90;;;3.97;;
49464;SDS011;35358;49.342;8.802;2023-02-28T05:15:14;5.70;;;3.28;;
49464;SDS011;35358;49.342;8.802;2023-02-28T05:17:41;9.60;;;3.40;;
49464;SDS011;35358;49.342;8.802;2023-02-28T05:20:07;6.65;;;3.55;;
49464;SDS011;35358;49.342;8.802;2023-02-28T05:22:36;4.28;;;2.70;;
49464;SDS011;35358;49.342;8.802;2023-02-28T05:25:05;4.63;;;2.90;;
49464;SDS011;35358;49.342;8.802;2023-02-28T05:27:34;5.90;;;3.55;;
49464;SDS011;35358;49.342;8.802;2023-02-28T05:29:59;5.93;;;3.53;;
49464;SDS011;35358;49.342;8.802;2023-02-28T05:32:28;3.93;;;2.83;;
49464;SDS011;35358;49.342;8.802;2023-02-28T05:34:53;6.80;;;3.17;;
49464;SDS011;35358;49.342;8.802;2023-02-28T05:37:19;5.15;;;3.42;;
49464;SDS011;35358;49.342;8.802;2023-02-28T05:39:45;5.28;;;3.30;;
49464;SDS011;35358;49.342;8.802;2023-02-28T05:42:10;5.07;;;3.50;;
49464;SDS011;35358;49.342;8.802;2023-02-28T05:44:38;5.05;;;3.20;;
49464;SDS011;35358;49.342;8.802;2023-02-28T05:47:03;5.90;;;3.28;;
49464;SDS011;35358;49.342;8.802;2023-02-28T05:49:29;5.22;;;3.35;;
49464;SDS011;35358;49.342;8.802;2023-02-28T05:51:54;10.25;;;5.28;;
49464;SDS011;35358;49.342;8.802;2023-02-28T05:54:20;6.72;;;4.05;;
49464;SDS011;35358;49.342;8.802;2023-02-28T05:56:45;4.28;;;3.42;;
49464;SDS011;35358;49.342;8.802;2023-02-28T05:59:13;8.00;;;4.60;;
49464;SDS011;35358;49.342;8.802;2023-02-28T06:01:40;5.00;;;3.67;;
49464;SDS011;35358;49.342;8.802;2023-02-28T06:04:12;7.10;;;3.70;;
49464;SDS011;35358;49.342;8.802;2023-02-28T06:06:46;4.97;;;3.08;;
49464;SDS011;35358;49.342;8.802;2023-02-28T06:09:14;4.75;;;3.45;;
49464;SDS011;35358;49.342;8.802;2023-02-28T06:11:43;5.95;;;3.78;;
49464;SDS011;35358;49.342;8.802;2023-02-28T06:14:13;5.03;;;3.55;;
49464;SDS011;35358;49.342;8.802;2023-02-28T06:16:40;4.10;;;3.15;;
49464;SDS011;35358;49.342;8.802;2023-02-28T06:19:08;6.05;;;3.78;;
49464;SDS011;35358;49.342;8.802;2023-02-28T06:21:34;4.78;;;3.47;;
49464;SDS011;35358;49.342;8.802;2023-02-28T06:24:00;5.03;;;3.33;;
49464;SDS011;35358;49.342;8.802;2023-02-28T06:26:26;5.82;;;3.50;;
49464;SDS011;35358;49.342;8.802;2023-02-28T06:28:51;5.82;;;4.50;;
49464;SDS011;35358;49.342;8.802;2023-02-28T06:31:17;5.45;;;4.00;;
49464;SDS011;35358;49.342;8.802;2023-02-28T06:33:44;4.95;;;3.47;;
49464;SDS011;35358;49.342;8.802;2023-02-28T06:36:11;5.65;;;4.00;;
49464;SDS011;35358;49.342;8.802;2023-02-28T06:38:38;4.28;;;3.40;;
49464;SDS011;35358;49.342;8.802;2023-02-28T06:41:11;5.30;;;3.72;;
49464;SDS011;35358;49.342;8.802;2023-02-28T06:43:41;6.78;;;4.30;;
49464;SDS011;35358;49.342;8.802;2023-02-28T06:46:13;8.93;;;4.30;;
49464;SDS011;35358;49.342;8.802;2023-02-28T06:48:42;5.45;;;4.38;;
49464;SDS011;35358;49.342;8.802;2023-02-28T06:51:13;4.47;;;3.75;;
49464;SDS011;35358;49.342;8.802;2023-02-28T06:53:47;4.72;;;3.63;;
49464;SDS011;35358;49.342;8.802;2023-02-28T06:56:13;7.32;;;4.05;;
49464;SDS011;35358;49.342;8.802;2023-02-28T06:58:40;7.85;;;4.10;;
49464;SDS011;35358;49.342;8.802;2023-02-28T07:01:06;6.13;;;3.97;;
49464;SDS011;35358;49.342;8.802;2023-02-28T07:03:35;6.43;;;3.72;;
49464;SDS011;35358;49.342;8.802;2023-02-28T07:06:04;6.80;;;4.20;;
49464;SDS011;35358;49.342;8.802;2023-02-28T07:08:30;6.40;;;4.20;;
49464;SDS011;35358;49.342;8.802;2023-02-28T07:10:58;7.20;;;4.15;;
49464;SDS011;35358;49.342;8.802;2023-02-28T07:13:23;6.75;;;4.28;;
49464;SDS011;35358;49.342;8.802;2023-02-28T07:15:53;7.13;;;3.83;;
49464;SDS011;35358;49.342;8.802;2023-02-28T07:18:20;6.13;;;4.43;;
49464;SDS011;35358;49.342;8.802;2023-02-28T07:20:50;5.90;;;4.40;;
49464;SDS011;35358;49.342;8.802;2023-02-28T07:23:16;9.90;;;4.80;;
49464;SDS011;35358;49.342;8.802;2023-02-28T07:25:42;6.00;;;4.20;;
49464;SDS011;35358;49.342;8.802;2023-02-28T07:28:07;6.82;;;4.28;;
49464;SDS011;35358;49.342;8.802;2023-02-28T07:30:33;9.25;;;5.00;;
49464;SDS011;35358;49.342;8.802;2023-02-28T07:32:59;5.70;;;3.80;;
49464;SDS011;35358;49.342;8.802;2023-02-28T07:35:24;6.80;;;5.13;;
49464;SDS011;35358;49.342;8.802;2023-02-28T07:37:52;8.25;;;4.32;;
49464;SDS011;35358;49.342;8.802;2023-02-28T07:40:18;12.38;;;5.97;;
49464;SDS011;35358;49.342;8.802;2023-02-28T07:42:43;6.82;;;3.95;;
49464;SDS011;35358;49.342;8.802;2023-02-28T07:45:09;7.38;;;4.50;;
49464;SDS011;35358;49.342;8.802;2023-02-28T07:47:37;6.93;;;4.60;;
49464;SDS011;35358;49.342;8.802;2023-02-28T07:50:04;6.63;;;4.30;;
49464;SDS011;35358;49.342;8.802;2023-02-28T07:52:33;6.93;;;4.90;;
49464;SDS011;35358;49.342;8.802;2023-02-28T07:54:58;5.75;;;4.70;;
49464;SDS011;35358;49.342;8.802;2023-02-28T07:57:26;7.63;;;4.80;;
49464;SDS011;35358;49.342;8.802;2023-02-28T07:59:52;6.35;;;4.60;;
49464;SDS011;35358;49.342;8.802;2023-02-28T08:02:20;6.50;;;4.68;;
49464;SDS011;35358;49.342;8.802;2023-02-28T08:04:46;6.20;;;4.35;;
49464;SDS011;35358;49.342;8.802;2023-02-28T08:07:12;5.88;;;4.13;;
49464;SDS011;35358;49.342;8.802;2023-02-28T08:09:43;9.65;;;4.70;;
49464;SDS011;35358;49.342;8.802;2023-02-28T08:12:11;6.88;;;5.00;;
49464;SDS011;35358;49.342;8.802;2023-02-28T08:14:37;9.70;;;5.07;;
49464;SDS011;35358;49.342;8.802;2023-02-28T08:17:05;8.30;;;4.78;;
49464;SDS011;35358;49.342;8.802;2023-02-28T08:19:31;8.35;;;5.00;;
49464;SDS011;35358;49.342;8.802;2023-02-28T08:21:57;7.47;;;4.22;;
49464;SDS011;35358;49.342;8.802;2023-02-28T08:24:25;6.60;;;4.40;;
49464;SDS011;35358;49.342;8.802;2023-02-28T08:26:54;16.25;;;5.30;;
49464;SDS011;35358;49.342;8.802;2023-02-28T08:29:19;8.60;;;4.97;;
49464;SDS011;35358;49.342;8.802;2023-02-28T08:31:45;8.45;;;4.72;;
49464;SDS011;35358;49.342;8.802;2023-02-28T08:34:12;6.75;;;4.30;;
49464;SDS011;35358;49.342;8.802;2023-02-28T08:36:42;7.93;;;4.70;;
49464;SDS011;35358;49.342;8.802;2023-02-28T08:39:09;7.57;;;4.68;;
49464;SDS011;35358;49.342;8.802;2023-02-28T08:41:38;5.95;;;4.53;;
49464;SDS011;35358;49.342;8.802;2023-02-28T08:44:03;7.60;;;4.80;;
49464;SDS011;35358;49.342;8.802;2023-02-28T08:46:31;7.72;;;4.80;;
49464;SDS011;35358;49.342;8.802;2023-02-28T08:48:59;10.52;;;5.18;;
49464;SDS011;35358;49.342;8.802;2023-02-28T08:51:26;8.77;;;4.43;;
49464;SDS011;35358;49.342;8.802;2023-02-28T08:53:53;8.05;;;4.85;;
49464;SDS011;35358;49.342;8.802;2023-02-28T08:56:20;7.32;;;4.60;;
49464;SDS011;35358;49.342;8.802;2023-02-28T08:58:47;6.30;;;4.68;;
49464;SDS011;35358;49.342;8.802;2023-02-28T09:01:14;7.78;;;5.63;;
49464;SDS011;35358;49.342;8.802;2023-02-28T09:03:45;7.63;;;4.60;;
49464;SDS011;35358;49.342;8.802;2023-02-28T09:06:16;6.72;;;5.13;;
49464;SDS011;35358;49.342;8.802;2023-02-28T09:08:45;9.52;;;5.45;;
49464;SDS011;35358;49.342;8.802;2023-02-28T09:11:14;7.10;;;4.40;;
49464;SDS011;35358;49.342;8.802;2023-02-28T09:13:43;7.78;;;5.05;;
49464;SDS011;35358;49.342;8.802;2023-02-28T09:39:52;7.18;;;4.57;;
49464;SDS011;35358;49.342;8.802;2023-02-28T09:42:29;7.55;;;5.03;;
49464;SDS011;35358;49.342;8.802;2023-02-28T09:48:26;7.15;;;4.72;;
49464;SDS011;35358;49.342;8.802;2023-02-28T09:53:34;8.23;;;5.22;;
49464;SDS011;35358;49.342;8.802;2023-02-28T09:56:07;9.32;;;5.55;;
49464;SDS011;35358;49.342;8.802;2023-02-28T10:06:46;7.85;;;4.93;;
49464;SDS011;35358;49.342;8.802;2023-02-28T10:09:18;6.97;;;5.10;;
49464;SDS011;35358;49.342;8.802;2023-02-28T10:11:51;6.47;;;5.20;;
49464;SDS011;35358;49.342;8.802;2023-02-28T10:14:20;9.57;;;5.70;;
49464;SDS011;35358;49.342;8.802;2023-02-28T10:16:50;9.43;;;5.38;;
49464;SDS011;35358;49.342;8.802;2023-02-28T10:24:56;9.70;;;5.18;;
49464;SDS011;35358;49.342;8.802;2023-02-28T10:27:33;9.77;;;5.07;;
49464;SDS011;35358;49.342;8.802;2023-02-28T10:30:01;9.52;;;5.82;;
49464;SDS011;35358;49.342;8.802;2023-02-28T10:32:29;8.02;;;5.53;;
49464;SDS011;35358;49.342;8.802;2023-02-28T10:35:01;10.02;;;5.80;;
49464;SDS011;35358;49.342;8.802;2023-02-28T10:37:37;7.03;;;5.43;;
49464;SDS011;35358;49.342;8.802;2023-02-28T10:40:07;8.43;;;5.88;;
49464;SDS011;35358;49.342;8.802;2023-02-28T10:48:48;8.18;;;5.30;;
49464;SDS011;35358;49.342;8.802;2023-02-28T10:51:24;7.80;;;5.85;;
49464;SDS011;35358;49.342;8.802;2023-02-28T10:54:00;9.20;;;6.05;;
49464;SDS011;35358;49.342;8.802;2023-02-28T10:56:28;6.60;;;4.85;;
49464;SDS011;35358;49.342;8.802;2023-02-28T11:03:59;9.68;;;5.70;;
49464;SDS011;35358;49.342;8.802;2023-02-28T11:06:26;8.32;;;5.63;;
49464;SDS011;35358;49.342;8.802;2023-02-28T11:08:56;8.52;;;5.90;;
49464;SDS011;35358;49.342;8.802;2023-02-28T11:11:27;9.55;;;5.95;;
49464;SDS011;35358;49.342;8.802;2023-02-28T11:14:02;8.10;;;5.47;;
49464;SDS011;35358;49.342;8.802;2023-02-28T11:16:34;8.93;;;6.03;;
49464;SDS011;35358;49.342;8.802;2023-02-28T11:19:03;8.77;;;5.97;;
49464;SDS011;35358;49.342;8.802;2023-02-28T11:21:34;9.68;;;6.70;;
49464;SDS011;35358;49.342;8.802;2023-02-28T11:26:49;7.53;;;5.68;;
49464;SDS011;35358;49.342;8.802;2023-02-28T11:29:29;9.00;;;5.68;;
49464;SDS011;35358;49.342;8.802;2023-02-28T11:34:28;9.40;;;6.25;;
49464;SDS011;35358;49.342;8.802;2023-02-28T11:36:56;9.10;;;6.25;;
49464;SDS011;35358;49.342;8.802;2023-02-28T11:39:22;8.68;;;6.78;;
49464;SDS011;35358;49.342;8.802;2023-02-28T11:42:00;9.03;;;5.87;;
49464;SDS011;35358;49.342;8.802;2023-02-28T11:53:35;7.47;;;6.20;;
49464;SDS011;35358;49.342;8.802;2023-02-28T11:56:16;8.40;;;5.32;;
49464;SDS011;35358;49.342;8.802;2023-02-28T12:04:49;9.57;;;5.75;;
49464;SDS011;35358;49.342;8.802;2023-02-28T12:26:19;10.40;;;6.75;;
49464;SDS011;35358;49.342;8.802;2023-02-28T12:31:49;10.32;;;6.90;;
49464;SDS011;35358;49.342;8.802;2023-02-28T12:34:37;11.48;;;7.15;;
49464;SDS011;35358;49.342;8.802;2023-02-28T12:37:07;11.55;;;6.47;;
49464;SDS011;35358;49.342;8.802;2023-02-28T12:39:46;8.43;;;6.72;;
49464;SDS011;35358;49.342;8.802;2023-02-28T12:42:27;9.05;;;6.60;;
49464;SDS011;35358;49.342;8.802;2023-02-28T12:45:01;11.25;;;7.38;;
49464;SDS011;35358;49.342;8.802;2023-02-28T12:47:33;8.73;;;6.50;;
49464;SDS011;35358;49.342;8.802;2023-02-28T12:57:58;9.38;;;6.60;;
49464;SDS011;35358;49.342;8.802;2023-02-28T13:00:29;8.98;;;7.43;;
49464;SDS011;35358;49.342;8.802;2023-02-28T13:03:10;10.02;;;6.78;;
49464;SDS011;35358;49.342;8.802;2023-02-28T13:08:47;9.90;;;6.53;;
49464;SDS011;35358;49.342;8.802;2023-02-28T13:13:58;8.90;;;6.38;;
49464;SDS011;35358;49.342;8.802;2023-02-28T13:16:26;11.00;;;6.97;;
49464;SDS011;35358;49.342;8.802;2023-02-28T13:18:52;9.35;;;6.82;;
49464;SDS011;35358;49.342;8.802;2023-02-28T13:21:42;9.80;;;6.93;;
49464;SDS011;35358;49.342;8.802;2023-02-28T13:24:09;11.52;;;7.57;;
49464;SDS011;35358;49.342;8.802;2023-02-28T13:29:02;7.57;;;6.85;;
49464;SDS011;35358;49.342;8.802;2023-02-28T13:34:33;10.40;;;7.13;;
49464;SDS011;35358;49.342;8.802;2023-02-28T13:39:49;9.82;;;7.70;;
49464;SDS011;35358;49.342;8.802;2023-02-28T13:47:39;11.43;;;7.55;;
49464;SDS011;35358;49.342;8.802;2023-02-28T13:55:37;9.80;;;6.70;;
49464;SDS011;35358;49.342;8.802;2023-02-28T13:58:32;9.48;;;7.15;;
49464;SDS011;35358;49.342;8.802;2023-02-28T14:04:23;11.73;;;7.25;;
49464;SDS011;35358;49.342;8.802;2023-02-28T14:06:57;10.95;;;6.85;;
49464;SDS011;35358;49.342;8.802;2023-02-28T14:09:25;14.95;;;8.45;;
49464;SDS011;35358;49.342;8.802;2023-02-28T14:15:04;9.77;;;6.75;;
49464;SDS011;35358;49.342;8.802;2023-02-28T14:17:52;10.45;;;6.90;;
49464;SDS011;35358;49.342;8.802;2023-02-28T14:20:25;10.65;;;6.70;;
49464;SDS011;35358;49.342;8.802;2023-02-28T14:25:47;8.43;;;6.63;;
49464;SDS011;35358;49.342;8.802;2023-02-28T14:31:24;10.35;;;7.45;;
49464;SDS011;35358;49.342;8.802;2023-02-28T14:36:43;9.35;;;6.78;;
49464;SDS011;35358;49.342;8.802;2023-02-28T14:39:21;14.07;;;7.47;;
49464;SDS011;35358;49.342;8.802;2023-02-28T14:41:52;9.23;;;6.63;;
49464;SDS011;35358;49.342;8.802;2023-02-28T14:44:22;10.50;;;6.72;;
49464;SDS011;35358;49.342;8.802;2023-02-28T14:46:52;8.88;;;6.90;;
49464;SDS011;35358;49.342;8.802;2023-02-28T14:49:51;10.48;;;6.90;;
49464;SDS011;35358;49.342;8.802;2023-02-28T14:54:53;8.35;;;6.43;;
49464;SDS011;35358;49.342;8.802;2023-02-28T14:57:25;9.48;;;6.95;;
49464;SDS011;35358;49.342;8.802;2023-02-28T14:59:59;8.48;;;6.78;;
49464;SDS011;35358;49.342;8.802;2023-02-28T15:05:00;10.02;;;7.13;;
49464;SDS011;35358;49.342;8.802;2023-02-28T15:07:47;10.18;;;7.15;;
49464;SDS011;35358;49.342;8.802;2023-02-28T15:10:21;9.38;;;7.18;;
49464;SDS011;35358;49.342;8.802;2023-02-28T15:12:55;10.15;;;7.65;;
49464;SDS011;35358;49.342;8.802;2023-02-28T15:18:10;10.90;;;6.70;;
49464;SDS011;35358;49.342;8.802;2023-02-28T15:20:50;10.10;;;7.30;;
49464;SDS011;35358;49.342;8.802;2023-02-28T15:23:19;9.38;;;7.15;;
49464;SDS011;35358;49.342;8.802;2023-02-28T15:25:46;11.05;;;6.80;;
49464;SDS011;35358;49.342;8.802;2023-02-28T15:28:16;8.98;;;6.45;;
49464;SDS011;35358;49.342;8.802;2023-02-28T15:33:29;8.93;;;6.45;;
49464;SDS011;35358;49.342;8.802;2023-02-28T15:38:42;9.25;;;6.65;;
49464;SDS011;35358;49.342;8.802;2023-02-28T15:41:21;8.30;;;6.75;;
49464;SDS011;35358;49.342;8.802;2023-02-28T15:47:02;10.70;;;6.93;;
49464;SDS011;35358;49.342;8.802;2023-02-28T15:49:31;9.52;;;7.10;;
49464;SDS011;35358;49.342;8.802;2023-02-28T15:52:39;11.52;;;6.68;;
49464;SDS011;35358;49.342;8.802;2023-02-28T15:57:48;9.85;;;7.28;;
49464;SDS011;35358;49.342;8.802;2023-02-28T16:00:19;10.95;;;7.40;;
49464;SDS011;35358;49.342;8.802;2023-02-28T16:02:49;9.02;;;6.78;;
49464;SDS011;35358;49.342;8.802;2023-02-28T16:07:46;10.23;;;7.30;;
49464;SDS011;35358;49.342;8.802;2023-02-28T16:10:14;8.57;;;6.78;;
49464;SDS011;35358;49.342;8.802;2023-02-28T16:12:39;10.32;;;7.13;;
49464;SDS011;35358;49.342;8.802;2023-02-28T16:15:07;8.73;;;6.75;;
49464;SDS011;35358;49.342;8.802;2023-02-28T16:17:43;12.45;;;7.50;;
49464;SDS011;35358;49.342;8.802;2023-02-28T16:20:15;13.68;;;7.28;;
49464;SDS011;35358;49.342;8.802;2023-02-28T16:22:47;9.85;;;6.90;;
49464;SDS011;35358;49.342;8.802;2023-02-28T16:25:16;11.15;;;7.80;;
49464;SDS011;35358;49.342;8.802;2023-02-28T16:27:46;8.80;;;6.97;;
49464;SDS011;35358;49.342;8.802;2023-02-28T16:30:20;9.27;;;6.95;;
49464;SDS011;35358;49.342;8.802;2023-02-28T16:32:52;11.95;;;7.32;;
49464;SDS011;35358;49.342;8.802;2023-02-28T16:35:20;11.07;;;6.20;;
49464;SDS011;35358;49.342;8.802;2023-02-28T16:37:48;10.63;;;6.75;;
49464;SDS011;35358;49.342;8.802;2023-02-28T16:40:16;9.27;;;6.50;;
49464;SDS011;35358;49.342;8.802;2023-02-28T16:42:45;8.65;;;7.00;;
49464;SDS011;35358;49.342;8.802;2023-02-28T16:45:20;12.38;;;7.45;;
49464;SDS011;35358;49.342;8.802;2023-02-28T16:47:51;12.07;;;7.47;;
49464;SDS011;35358;49.342;8.802;2023-02-28T16:52:50;9.88;;;7.03;;
49464;SDS011;35358;49.342;8.802;2023-02-28T16:55:21;10.50;;;7.13;;
49464;SDS011;35358;49.342;8.802;2023-02-28T17:00:17;13.02;;;6.95;;
49464;SDS011;35358;49.342;8.802;2023-02-28T17:02:45;10.60;;;7.05;;
49464;SDS011;35358;49.342;8.802;2023-02-28T17:05:11;11.60;;;7.28;;
49464;SDS011;35358;49.342;8.802;2023-02-28T17:07:38;9.50;;;7.05;;
49464;SDS011;35358;49.342;8.802;2023-02-28T17:12:41;9.70;;;6.43;;
49464;SDS011;35358;49.342;8.802;2023-02-28T17:15:06;9.32;;;7.00;;
49464;SDS011;35358;49.342;8.802;2023-02-28T17:17:38;13.40;;;6.95;;
49464;SDS011;35358;49.342;8.802;2023-02-28T17:20:04;9.00;;;6.88;;
49464;SDS011;35358;49.342;8.802;2023-02-28T17:22:35;11.17;;;6.63;;
49464;SDS011;35358;49.342;8.802;2023-02-28T17:25:00;9.63;;;6.80;;
49464;SDS011;35358;49.342;8.802;2023-02-28T17:27:28;10.90;;;6.95;;
49464;SDS011;35358;49.342;8.802;2023-02-28T17:29:54;9.85;;;6.45;;
49464;SDS011;35358;49.342;8.802;2023-02-28T17:32:19;9.50;;;6.38;;
49464;SDS011;35358;49.342;8.802;2023-02-28T17:34:45;10.60;;;7.15;;
49464;SDS011;35358;49.342;8.802;2023-02-28T17:37:11;10.00;;;6.47;;
49464;SDS011;35358;49.342;8.802;2023-02-28T17:39:36;8.10;;;6.53;;
49464;SDS011;35358;49.342;8.802;2023-02-28T17:42:02;9.57;;;6.60;;
49464;SDS011;35358;49.342;8.802;2023-02-28T17:44:28;13.73;;;7.20;;
49464;SDS011;35358;49.342;8.802;2023-02-28T17:46:58;8.60;;;6.15;;
49464;SDS011;35358;49.342;8.802;2023-02-28T17:49:24;11.48;;;7.50;;
49464;SDS011;35358;49.342;8.802;2023-02-28T17:51:49;9.75;;;6.60;;
49464;SDS011;35358;49.342;8.802;2023-02-28T17:54:15;10.60;;;6.65;;
49464;SDS011;35358;49.342;8.802;2023-02-28T17:56:41;11.05;;;8.30;;
49464;SDS011;35358;49.342;8.802;2023-02-28T17:59:11;10.15;;;6.95;;
49464;SDS011;35358;49.342;8.802;2023-02-28T18:01:37;10.52;;;6.57;;
49464;SDS011;35358;49.342;8.802;2023-02-28T18:04:08;9.98;;;6.43;;
49464;SDS011;35358;49.342;8.802;2023-02-28T18:06:37;9.48;;;6.90;;
49464;SDS011;35358;49.342;8.802;2023-02-28T18:09:14;10.23;;;7.43;;
49464;SDS011;35358;49.342;8.802;2023-02-28T18:11:44;9.50;;;7.30;;
49464;SDS011;35358;49.342;8.802;2023-02-28T18:14:18;9.80;;;7.18;;
49464;SDS011;35358;49.342;8.802;2023-02-28T18:16:44;12.82;;;7.55;;
49464;SDS011;35358;49.342;8.802;2023-02-28T18:19:14;10.95;;;7.50;;
49464;SDS011;35358;49.342;8.802;2023-02-28T18:21:42;11.07;;;6.90;;
49464;SDS011;35358;49.342;8.802;2023-02-28T18:24:18;10.88;;;7.15;;
49464;SDS011;35358;49.342;8.802;2023-02-28T18:26:47;14.50;;;9.93;;
49464;SDS011;35358;49.342;8.802;2023-02-28T18:29:17;16.67;;;10.57;;